sensor_id;sensor_type;location;lat;lon;timestamp;P1;durP1;ratioP1;P2;durP2;ratioP2
15931;SDS011;8065;49.520;11.284;2023-04-03T00:02:10;2.30;;;1.73;;
15931;SDS011;8065;49.520;11.284;2023-04-03T00:04:37;2.00;;;1.80;;
15931;SDS011;8065;49.520;11.284;2023-04-03T00:07:03;2.03;;;1.63;;
15931;SDS011;8065;49.520;11.284;2023-04-03T00:09:30;2.73;;;1.73;;
15931;SDS011;8065;49.520;11.284;2023-04-03T00:11:58;2.00;;;1.80;;
15931;SDS011;8065;49.520;11.284;2023-04-03T00:14:25;2.07;;;1.87;;
15931;SDS011;8065;49.520;11.284;2023-04-03T00:16:52;1.90;;;1.80;;
15931;SDS011;8065;49.520;11.284;2023-04-03T00:19:19;2.27;;;2.07;;
15931;SDS011;8065;49.520;11.284;2023-04-03T00:21:45;2.10;;;1.93;;
15931;SDS011;8065;49.520;11.284;2023-04-03T00:24:12;2.07;;;1.90;;
15931;SDS011;8065;49.520;11.284;2023-04-03T00:26:38;2.70;;;1.97;;
15931;SDS011;8065;49.520;11.284;2023-04-03T00:29:06;2.73;;;1.73;;
15931;SDS011;8065;49.520;11.284;2023-04-03T00:31:32;2.20;;;2.00;;
15931;SDS011;8065;49.520;11.284;2023-04-03T00:33:59;3.57;;;2.17;;
15931;SDS011;8065;49.520;11.284;2023-04-03T00:36:25;1.90;;;1.80;;
15931;SDS011;8065;49.520;11.284;2023-04-03T00:38:52;2.10;;;1.90;;
15931;SDS011;8065;49.520;11.284;2023-04-03T00:41:18;2.10;;;1.90;;
15931;SDS011;8065;49.520;11.284;2023-04-03T00:43:45;3.00;;;2.10;;
15931;SDS011;8065;49.520;11.284;2023-04-03T00:46:12;1.70;;;1.60;;
15931;SDS011;8065;49.520;11.284;2023-04-03T00:48:39;1.87;;;1.77;;
15931;SDS011;8065;49.520;11.284;2023-04-03T00:51:09;2.63;;;2.20;;
15931;SDS011;8065;49.520;11.284;2023-04-03T00:53:39;2.67;;;1.90;;
15931;SDS011;8065;49.520;11.284;2023-04-03T00:56:08;2.10;;;1.80;;
15931;SDS011;8065;49.520;11.284;2023-04-03T00:58:39;1.70;;;1.60;;
15931;SDS011;8065;49.520;11.284;2023-04-03T01:01:10;2.23;;;2.03;;
15931;SDS011;8065;49.520;11.284;2023-04-03T01:03:42;2.47;;;1.90;;
15931;SDS011;8065;49.520;11.284;2023-04-03T01:06:09;2.97;;;1.90;;
15931;SDS011;8065;49.520;11.284;2023-04-03T01:08:35;2.10;;;1.90;;
15931;SDS011;8065;49.520;11.284;2023-04-03T01:11:02;1.97;;;1.80;;
15931;SDS011;8065;49.520;11.284;2023-04-03T01:13:29;2.70;;;2.10;;
15931;SDS011;8065;49.520;11.284;2023-04-03T01:15:58;2.43;;;1.90;;
15931;SDS011;8065;49.520;11.284;2023-04-03T01:18:28;2.10;;;1.90;;
15931;SDS011;8065;49.520;11.284;2023-04-03T01:21:03;3.27;;;2.00;;
15931;SDS011;8065;49.520;11.284;2023-04-03T01:23:53;2.63;;;2.07;;
15931;SDS011;8065;49.520;11.284;2023-04-03T01:26:27;1.90;;;1.80;;
15931;SDS011;8065;49.520;11.284;2023-04-03T01:28:54;2.60;;;1.80;;
15931;SDS011;8065;49.520;11.284;2023-04-03T01:31:22;2.00;;;1.80;;
15931;SDS011;8065;49.520;11.284;2023-04-03T01:33:53;2.00;;;1.90;;
15931;SDS011;8065;49.520;11.284;2023-04-03T01:36:21;2.20;;;1.80;;
15931;SDS011;8065;49.520;11.284;2023-04-03T01:38:50;2.87;;;1.93;;
15931;SDS011;8065;49.520;11.284;2023-04-03T01:41:17;4.37;;;1.60;;
15931;SDS011;8065;49.520;11.284;2023-04-03T01:43:43;2.67;;;2.07;;
15931;SDS011;8065;49.520;11.284;2023-04-03T01:46:10;2.20;;;2.00;;
15931;SDS011;8065;49.520;11.284;2023-04-03T01:48:37;2.10;;;1.97;;
15931;SDS011;8065;49.520;11.284;2023-04-03T01:51:05;2.20;;;1.83;;
15931;SDS011;8065;49.520;11.284;2023-04-03T01:53:31;2.70;;;2.00;;
15931;SDS011;8065;49.520;11.284;2023-04-03T01:55:58;2.50;;;1.90;;
15931;SDS011;8065;49.520;11.284;2023-04-03T01:58:24;2.00;;;1.80;;
15931;SDS011;8065;49.520;11.284;2023-04-03T02:00:51;2.20;;;1.73;;
15931;SDS011;8065;49.520;11.284;2023-04-03T02:03:18;2.17;;;2.00;;
15931;SDS011;8065;49.520;11.284;2023-04-03T02:05:44;2.40;;;1.70;;
15931;SDS011;8065;49.520;11.284;2023-04-03T02:08:13;2.50;;;2.27;;
15931;SDS011;8065;49.520;11.284;2023-04-03T02:10:39;2.03;;;1.83;;
15931;SDS011;8065;49.520;11.284;2023-04-03T02:13:06;3.40;;;1.97;;
15931;SDS011;8065;49.520;11.284;2023-04-03T02:15:32;2.87;;;2.10;;
15931;SDS011;8065;49.520;11.284;2023-04-03T02:17:58;2.27;;;1.90;;
15931;SDS011;8065;49.520;11.284;2023-04-03T02:20:25;2.10;;;1.90;;
15931;SDS011;8065;49.520;11.284;2023-04-03T02:22:51;2.33;;;2.10;;
15931;SDS011;8065;49.520;11.284;2023-04-03T02:25:19;2.63;;;1.83;;
15931;SDS011;8065;49.520;11.284;2023-04-03T02:27:46;3.10;;;2.10;;
15931;SDS011;8065;49.520;11.284;2023-04-03T02:30:12;1.83;;;1.67;;
15931;SDS011;8065;49.520;11.284;2023-04-03T02:32:39;2.57;;;1.97;;
15931;SDS011;8065;49.520;11.284;2023-04-03T02:35:06;2.00;;;1.80;;
15931;SDS011;8065;49.520;11.284;2023-04-03T02:37:33;3.03;;;1.80;;
15931;SDS011;8065;49.520;11.284;2023-04-03T02:39:59;2.47;;;1.73;;
15931;SDS011;8065;49.520;11.284;2023-04-03T02:42:27;2.70;;;1.90;;
15931;SDS011;8065;49.520;11.284;2023-04-03T02:44:54;2.10;;;1.90;;
15931;SDS011;8065;49.520;11.284;2023-04-03T02:47:21;5.80;;;2.33;;
15931;SDS011;8065;49.520;11.284;2023-04-03T02:49:47;3.27;;;2.27;;
15931;SDS011;8065;49.520;11.284;2023-04-03T02:52:14;2.60;;;1.97;;
15931;SDS011;8065;49.520;11.284;2023-04-03T02:54:40;3.33;;;2.00;;
15931;SDS011;8065;49.520;11.284;2023-04-03T02:57:07;4.43;;;2.00;;
15931;SDS011;8065;49.520;11.284;2023-04-03T02:59:35;2.00;;;1.80;;
15931;SDS011;8065;49.520;11.284;2023-04-03T03:02:02;3.03;;;2.07;;
15931;SDS011;8065;49.520;11.284;2023-04-03T03:04:28;2.20;;;1.97;;
15931;SDS011;8065;49.520;11.284;2023-04-03T03:06:55;2.60;;;2.40;;
15931;SDS011;8065;49.520;11.284;2023-04-03T03:09:21;2.30;;;2.10;;
15931;SDS011;8065;49.520;11.284;2023-04-03T03:11:48;4.67;;;2.10;;
15931;SDS011;8065;49.520;11.284;2023-04-03T03:14:14;3.40;;;2.40;;
15931;SDS011;8065;49.520;11.284;2023-04-03T03:16:42;6.70;;;2.20;;
15931;SDS011;8065;49.520;11.284;2023-04-03T03:19:08;2.50;;;1.70;;
15931;SDS011;8065;49.520;11.284;2023-04-03T03:21:35;2.80;;;1.90;;
15931;SDS011;8065;49.520;11.284;2023-04-03T03:24:01;3.60;;;2.30;;
15931;SDS011;8065;49.520;11.284;2023-04-03T03:26:28;2.67;;;2.43;;
15931;SDS011;8065;49.520;11.284;2023-04-03T03:28:55;3.47;;;2.10;;
15931;SDS011;8065;49.520;11.284;2023-04-03T03:31:21;3.17;;;2.00;;
15931;SDS011;8065;49.520;11.284;2023-04-03T03:33:49;1.90;;;1.80;;
15931;SDS011;8065;49.520;11.284;2023-04-03T03:36:15;2.33;;;1.90;;
15931;SDS011;8065;49.520;11.284;2023-04-03T03:38:42;2.63;;;2.07;;
15931;SDS011;8065;49.520;11.284;2023-04-03T03:41:08;3.57;;;2.40;;
15931;SDS011;8065;49.520;11.284;2023-04-03T03:43:35;3.13;;;2.13;;
15931;SDS011;8065;49.520;11.284;2023-04-03T03:46:01;3.87;;;2.40;;
15931;SDS011;8065;49.520;11.284;2023-04-03T03:48:28;2.33;;;2.13;;
15931;SDS011;8065;49.520;11.284;2023-04-03T03:50:55;4.13;;;2.50;;
15931;SDS011;8065;49.520;11.284;2023-04-03T03:53:22;2.60;;;1.93;;
15931;SDS011;8065;49.520;11.284;2023-04-03T03:55:48;3.70;;;2.37;;
15931;SDS011;8065;49.520;11.284;2023-04-03T03:58:15;4.27;;;2.60;;
15931;SDS011;8065;49.520;11.284;2023-04-03T04:00:41;3.47;;;2.43;;
15931;SDS011;8065;49.520;11.284;2023-04-03T04:03:08;4.57;;;2.77;;
15931;SDS011;8065;49.520;11.284;2023-04-03T04:05:34;4.17;;;3.23;;
15931;SDS011;8065;49.520;11.284;2023-04-03T04:08:02;5.60;;;3.27;;
15931;SDS011;8065;49.520;11.284;2023-04-03T04:10:29;6.23;;;3.37;;
15931;SDS011;8065;49.520;11.284;2023-04-03T04:12:55;4.67;;;3.20;;
15931;SDS011;8065;49.520;11.284;2023-04-03T04:15:22;4.47;;;2.83;;
15931;SDS011;8065;49.520;11.284;2023-04-03T04:17:50;5.03;;;3.00;;
15931;SDS011;8065;49.520;11.284;2023-04-03T04:20:17;4.53;;;2.90;;
15931;SDS011;8065;49.520;11.284;2023-04-03T04:22:43;3.40;;;3.10;;
15931;SDS011;8065;49.520;11.284;2023-04-03T04:25:11;6.27;;;3.00;;
15931;SDS011;8065;49.520;11.284;2023-04-03T04:27:37;3.53;;;2.97;;
15931;SDS011;8065;49.520;11.284;2023-04-03T04:30:05;4.57;;;3.00;;
15931;SDS011;8065;49.520;11.284;2023-04-03T04:32:32;4.27;;;3.27;;
15931;SDS011;8065;49.520;11.284;2023-04-03T04:34:59;4.53;;;3.20;;
15931;SDS011;8065;49.520;11.284;2023-04-03T04:37:25;4.73;;;3.43;;
15931;SDS011;8065;49.520;11.284;2023-04-03T04:39:51;5.20;;;3.00;;
15931;SDS011;8065;49.520;11.284;2023-04-03T04:42:19;4.43;;;3.10;;
15931;SDS011;8065;49.520;11.284;2023-04-03T04:44:46;3.70;;;3.10;;
15931;SDS011;8065;49.520;11.284;2023-04-03T04:47:12;4.43;;;3.20;;
15931;SDS011;8065;49.520;11.284;2023-04-03T04:49:39;3.27;;;2.97;;
15931;SDS011;8065;49.520;11.284;2023-04-03T04:52:05;4.83;;;2.97;;
15931;SDS011;8065;49.520;11.284;2023-04-03T04:54:32;3.37;;;2.87;;
15931;SDS011;8065;49.520;11.284;2023-04-03T04:56:58;5.20;;;2.87;;
15931;SDS011;8065;49.520;11.284;2023-04-03T04:59:26;5.30;;;2.77;;
15931;SDS011;8065;49.520;11.284;2023-04-03T05:01:53;3.80;;;2.53;;
15931;SDS011;8065;49.520;11.284;2023-04-03T05:04:19;4.33;;;2.83;;
15931;SDS011;8065;49.520;11.284;2023-04-03T05:06:46;3.60;;;3.00;;
15931;SDS011;8065;49.520;11.284;2023-04-03T05:09:12;3.77;;;2.83;;
15931;SDS011;8065;49.520;11.284;2023-04-03T05:11:39;4.60;;;3.20;;
15931;SDS011;8065;49.520;11.284;2023-04-03T05:14:06;5.60;;;2.93;;
15931;SDS011;8065;49.520;11.284;2023-04-03T05:16:33;3.83;;;3.27;;
15931;SDS011;8065;49.520;11.284;2023-04-03T05:19:00;5.40;;;3.50;;
15931;SDS011;8065;49.520;11.284;2023-04-03T05:21:27;4.40;;;3.20;;
15931;SDS011;8065;49.520;11.284;2023-04-03T05:23:57;4.37;;;3.47;;
15931;SDS011;8065;49.520;11.284;2023-04-03T05:26:24;5.77;;;3.20;;
15931;SDS011;8065;49.520;11.284;2023-04-03T05:28:50;5.17;;;3.10;;
15931;SDS011;8065;49.520;11.284;2023-04-03T05:31:17;8.20;;;3.30;;
15931;SDS011;8065;49.520;11.284;2023-04-03T05:33:45;4.60;;;3.17;;
15931;SDS011;8065;49.520;11.284;2023-04-03T05:36:12;4.43;;;2.73;;
15931;SDS011;8065;49.520;11.284;2023-04-03T05:38:38;3.37;;;3.03;;
15931;SDS011;8065;49.520;11.284;2023-04-03T05:41:05;3.87;;;2.53;;
15931;SDS011;8065;49.520;11.284;2023-04-03T05:43:32;4.13;;;3.10;;
15931;SDS011;8065;49.520;11.284;2023-04-03T05:45:59;5.67;;;3.47;;
15931;SDS011;8065;49.520;11.284;2023-04-03T05:48:26;3.70;;;2.90;;
15931;SDS011;8065;49.520;11.284;2023-04-03T05:50:53;7.90;;;3.50;;
15931;SDS011;8065;49.520;11.284;2023-04-03T05:53:21;4.67;;;3.20;;
15931;SDS011;8065;49.520;11.284;2023-04-03T05:55:52;7.50;;;3.40;;
15931;SDS011;8065;49.520;11.284;2023-04-03T05:58:18;7.33;;;3.53;;
15931;SDS011;8065;49.520;11.284;2023-04-03T06:00:45;4.47;;;3.33;;
15931;SDS011;8065;49.520;11.284;2023-04-03T06:03:12;4.17;;;3.10;;
15931;SDS011;8065;49.520;11.284;2023-04-03T06:05:38;4.53;;;2.83;;
15931;SDS011;8065;49.520;11.284;2023-04-03T06:08:06;6.00;;;2.90;;
15931;SDS011;8065;49.520;11.284;2023-04-03T06:10:34;3.97;;;2.90;;
15931;SDS011;8065;49.520;11.284;2023-04-03T06:13:00;4.43;;;2.60;;
15931;SDS011;8065;49.520;11.284;2023-04-03T06:15:27;4.50;;;2.60;;
15931;SDS011;8065;49.520;11.284;2023-04-03T06:17:53;5.37;;;2.50;;
15931;SDS011;8065;49.520;11.284;2023-04-03T06:20:20;3.97;;;2.80;;
15931;SDS011;8065;49.520;11.284;2023-04-03T06:22:47;7.10;;;2.87;;
15931;SDS011;8065;49.520;11.284;2023-04-03T06:25:15;4.97;;;2.50;;
15931;SDS011;8065;49.520;11.284;2023-04-03T06:27:42;5.77;;;2.77;;
15931;SDS011;8065;49.520;11.284;2023-04-03T06:30:09;7.30;;;2.83;;
15931;SDS011;8065;49.520;11.284;2023-04-03T06:32:36;4.73;;;2.60;;
15931;SDS011;8065;49.520;11.284;2023-04-03T06:35:03;5.53;;;3.00;;
15931;SDS011;8065;49.520;11.284;2023-04-03T06:37:30;4.50;;;2.87;;
15931;SDS011;8065;49.520;11.284;2023-04-03T06:39:57;4.83;;;2.70;;
15931;SDS011;8065;49.520;11.284;2023-04-03T06:42:26;4.30;;;2.67;;
15931;SDS011;8065;49.520;11.284;2023-04-03T06:44:53;5.57;;;3.00;;
15931;SDS011;8065;49.520;11.284;2023-04-03T06:47:19;4.97;;;3.07;;
15931;SDS011;8065;49.520;11.284;2023-04-03T06:49:45;4.33;;;2.90;;
15931;SDS011;8065;49.520;11.284;2023-04-03T06:52:12;6.83;;;2.63;;
15931;SDS011;8065;49.520;11.284;2023-04-03T06:54:39;5.70;;;2.77;;
15931;SDS011;8065;49.520;11.284;2023-04-03T06:57:05;6.07;;;3.13;;
15931;SDS011;8065;49.520;11.284;2023-04-03T06:59:33;3.73;;;2.57;;
15931;SDS011;8065;49.520;11.284;2023-04-03T07:02:00;4.37;;;2.90;;
15931;SDS011;8065;49.520;11.284;2023-04-03T07:04:26;6.63;;;3.07;;
15931;SDS011;8065;49.520;11.284;2023-04-03T07:06:53;5.47;;;2.77;;
15931;SDS011;8065;49.520;11.284;2023-04-03T07:09:19;3.73;;;2.40;;
15931;SDS011;8065;49.520;11.284;2023-04-03T07:11:46;3.50;;;2.80;;
15931;SDS011;8065;49.520;11.284;2023-04-03T07:14:12;4.47;;;2.90;;
15931;SDS011;8065;49.520;11.284;2023-04-03T07:16:40;5.33;;;2.97;;
15931;SDS011;8065;49.520;11.284;2023-04-03T07:19:07;4.67;;;3.07;;
15931;SDS011;8065;49.520;11.284;2023-04-03T07:21:33;6.33;;;2.80;;
15931;SDS011;8065;49.520;11.284;2023-04-03T07:24:00;4.77;;;2.77;;
15931;SDS011;8065;49.520;11.284;2023-04-03T07:26:27;4.73;;;2.50;;
15931;SDS011;8065;49.520;11.284;2023-04-03T07:28:53;3.80;;;3.00;;
15931;SDS011;8065;49.520;11.284;2023-04-03T07:31:19;3.73;;;2.70;;
15931;SDS011;8065;49.520;11.284;2023-04-03T07:33:47;4.60;;;2.57;;
15931;SDS011;8065;49.520;11.284;2023-04-03T07:36:15;3.03;;;2.60;;
15931;SDS011;8065;49.520;11.284;2023-04-03T07:38:42;6.13;;;2.60;;
15931;SDS011;8065;49.520;11.284;2023-04-03T07:41:11;5.73;;;2.97;;
15931;SDS011;8065;49.520;11.284;2023-04-03T07:43:39;4.00;;;2.80;;
15931;SDS011;8065;49.520;11.284;2023-04-03T07:46:07;5.53;;;2.47;;
15931;SDS011;8065;49.520;11.284;2023-04-03T07:48:34;4.10;;;2.70;;
15931;SDS011;8065;49.520;11.284;2023-04-03T07:51:02;3.87;;;2.60;;
15931;SDS011;8065;49.520;11.284;2023-04-03T07:53:29;5.80;;;3.13;;
15931;SDS011;8065;49.520;11.284;2023-04-03T07:55:57;3.93;;;2.70;;
15931;SDS011;8065;49.520;11.284;2023-04-03T07:58:25;3.57;;;2.60;;
15931;SDS011;8065;49.520;11.284;2023-04-03T08:00:51;3.60;;;2.60;;
15931;SDS011;8065;49.520;11.284;2023-04-03T08:03:18;6.80;;;2.80;;
15931;SDS011;8065;49.520;11.284;2023-04-03T08:05:45;2.40;;;2.20;;
15931;SDS011;8065;49.520;11.284;2023-04-03T08:08:16;3.50;;;2.60;;
15931;SDS011;8065;49.520;11.284;2023-04-03T08:10:45;3.33;;;2.43;;
15931;SDS011;8065;49.520;11.284;2023-04-03T08:13:14;3.33;;;2.27;;
15931;SDS011;8065;49.520;11.284;2023-04-03T08:15:41;2.50;;;2.30;;
15931;SDS011;8065;49.520;11.284;2023-04-03T08:18:07;2.57;;;2.10;;
15931;SDS011;8065;49.520;11.284;2023-04-03T08:20:33;2.50;;;2.30;;
15931;SDS011;8065;49.520;11.284;2023-04-03T08:23:00;3.47;;;2.60;;
15931;SDS011;8065;49.520;11.284;2023-04-03T08:25:28;4.30;;;2.33;;
15931;SDS011;8065;49.520;11.284;2023-04-03T08:27:54;3.23;;;1.80;;
15931;SDS011;8065;49.520;11.284;2023-04-03T08:30:21;3.83;;;2.10;;
15931;SDS011;8065;49.520;11.284;2023-04-03T08:32:47;3.37;;;2.00;;
15931;SDS011;8065;49.520;11.284;2023-04-03T08:35:14;4.97;;;2.10;;
15931;SDS011;8065;49.520;11.284;2023-04-03T08:37:40;3.93;;;1.90;;
15931;SDS011;8065;49.520;11.284;2023-04-03T08:40:08;2.83;;;2.00;;
15931;SDS011;8065;49.520;11.284;2023-04-03T08:42:43;2.50;;;2.00;;
15931;SDS011;8065;49.520;11.284;2023-04-03T08:45:18;3.67;;;2.07;;
15931;SDS011;8065;49.520;11.284;2023-04-03T08:47:52;2.73;;;1.83;;
15931;SDS011;8065;49.520;11.284;2023-04-03T08:50:26;3.60;;;1.90;;
15931;SDS011;8065;49.520;11.284;2023-04-03T08:52:57;4.43;;;1.80;;
15931;SDS011;8065;49.520;11.284;2023-04-03T08:55:25;3.43;;;1.80;;
15931;SDS011;8065;49.520;11.284;2023-04-03T08:57:58;3.77;;;1.70;;
15931;SDS011;8065;49.520;11.284;2023-04-03T09:00:28;3.43;;;2.00;;
15931;SDS011;8065;49.520;11.284;2023-04-03T09:03:00;1.70;;;1.60;;
15931;SDS011;8065;49.520;11.284;2023-04-03T09:05:30;3.10;;;1.90;;
15931;SDS011;8065;49.520;11.284;2023-04-03T09:08:07;4.07;;;1.90;;
15931;SDS011;8065;49.520;11.284;2023-04-03T09:10:41;2.50;;;1.80;;
15931;SDS011;8065;49.520;11.284;2023-04-03T09:13:10;3.53;;;1.93;;
15931;SDS011;8065;49.520;11.284;2023-04-03T09:15:43;2.90;;;1.70;;
15931;SDS011;8065;49.520;11.284;2023-04-03T09:18:12;1.93;;;1.47;;
15931;SDS011;8065;49.520;11.284;2023-04-03T09:20:43;2.77;;;1.80;;
15931;SDS011;8065;49.520;11.284;2023-04-03T09:23:15;2.53;;;1.70;;
15931;SDS011;8065;49.520;11.284;2023-04-03T09:25:47;3.07;;;1.60;;
15931;SDS011;8065;49.520;11.284;2023-04-03T09:28:17;6.37;;;3.37;;
15931;SDS011;8065;49.520;11.284;2023-04-03T09:30:43;7.80;;;5.53;;
15931;SDS011;8065;49.520;11.284;2023-04-03T09:33:10;11.53;;;9.80;;
15931;SDS011;8065;49.520;11.284;2023-04-03T09:35:38;9.33;;;7.60;;
15931;SDS011;8065;49.520;11.284;2023-04-03T09:38:17;9.57;;;8.70;;
15931;SDS011;8065;49.520;11.284;2023-04-03T09:40:47;10.37;;;6.83;;
15931;SDS011;8065;49.520;11.284;2023-04-03T09:43:23;21.10;;;12.93;;
15931;SDS011;8065;49.520;11.284;2023-04-03T09:45:52;32.43;;;19.50;;
15931;SDS011;8065;49.520;11.284;2023-04-03T09:48:20;8.33;;;6.33;;
15931;SDS011;8065;49.520;11.284;2023-04-03T09:50:58;4.47;;;2.87;;
15931;SDS011;8065;49.520;11.284;2023-04-03T09:53:31;5.43;;;2.17;;
15931;SDS011;8065;49.520;11.284;2023-04-03T09:56:02;2.73;;;2.00;;
15931;SDS011;8065;49.520;11.284;2023-04-03T09:58:33;8.40;;;7.60;;
15931;SDS011;8065;49.520;11.284;2023-04-03T10:01:04;8.60;;;7.80;;
15931;SDS011;8065;49.520;11.284;2023-04-03T10:03:32;6.43;;;5.80;;
15931;SDS011;8065;49.520;11.284;2023-04-03T10:06:01;3.23;;;2.60;;
15931;SDS011;8065;49.520;11.284;2023-04-03T10:08:29;3.30;;;1.90;;
15931;SDS011;8065;49.520;11.284;2023-04-03T10:11:07;2.13;;;1.90;;
15931;SDS011;8065;49.520;11.284;2023-04-03T10:13:37;3.03;;;1.87;;
15931;SDS011;8065;49.520;11.284;2023-04-03T10:16:17;4.90;;;1.70;;
15931;SDS011;8065;49.520;11.284;2023-04-03T10:18:45;3.77;;;1.80;;
15931;SDS011;8065;49.520;11.284;2023-04-03T10:21:29;1.97;;;1.60;;
15931;SDS011;8065;49.520;11.284;2023-04-03T10:24:03;2.43;;;1.90;;
15931;SDS011;8065;49.520;11.284;2023-04-03T10:26:38;2.10;;;1.90;;
15931;SDS011;8065;49.520;11.284;2023-04-03T10:29:21;2.77;;;1.70;;
15931;SDS011;8065;49.520;11.284;2023-04-03T10:31:58;1.43;;;1.33;;
15931;SDS011;8065;49.520;11.284;2023-04-03T10:34:37;1.57;;;1.47;;
15931;SDS011;8065;49.520;11.284;2023-04-03T10:37:10;1.70;;;1.40;;
15931;SDS011;8065;49.520;11.284;2023-04-03T10:39:44;2.43;;;1.70;;
15931;SDS011;8065;49.520;11.284;2023-04-03T10:42:18;2.00;;;1.60;;
15931;SDS011;8065;49.520;11.284;2023-04-03T10:44:58;1.97;;;1.40;;
15931;SDS011;8065;49.520;11.284;2023-04-03T10:47:36;1.77;;;1.30;;
15931;SDS011;8065;49.520;11.284;2023-04-03T10:53:07;1.80;;;1.47;;
15931;SDS011;8065;49.520;11.284;2023-04-03T10:55:43;3.80;;;1.50;;
15931;SDS011;8065;49.520;11.284;2023-04-03T10:58:18;2.83;;;1.60;;
15931;SDS011;8065;49.520;11.284;2023-04-03T11:00:51;3.47;;;1.57;;
15931;SDS011;8065;49.520;11.284;2023-04-03T11:03:27;1.27;;;1.17;;
15931;SDS011;8065;49.520;11.284;2023-04-03T11:05:58;1.90;;;1.50;;
15931;SDS011;8065;49.520;11.284;2023-04-03T11:08:28;1.67;;;1.10;;
15931;SDS011;8065;49.520;11.284;2023-04-03T11:11:01;3.47;;;1.40;;
15931;SDS011;8065;49.520;11.284;2023-04-03T11:13:33;1.83;;;1.67;;
15931;SDS011;8065;49.520;11.284;2023-04-03T11:16:04;1.60;;;1.50;;
15931;SDS011;8065;49.520;11.284;2023-04-03T11:18:32;1.97;;;1.30;;
15931;SDS011;8065;49.520;11.284;2023-04-03T11:21:04;2.70;;;1.40;;
15931;SDS011;8065;49.520;11.284;2023-04-03T11:23:38;1.30;;;1.20;;
15931;SDS011;8065;49.520;11.284;2023-04-03T11:26:08;1.20;;;1.10;;
15931;SDS011;8065;49.520;11.284;2023-04-03T11:28:37;1.77;;;1.10;;
15931;SDS011;8065;49.520;11.284;2023-04-03T11:31:09;2.83;;;1.50;;
15931;SDS011;8065;49.520;11.284;2023-04-03T11:33:47;2.93;;;1.60;;
15931;SDS011;8065;49.520;11.284;2023-04-03T11:36:22;3.57;;;1.60;;
15931;SDS011;8065;49.520;11.284;2023-04-03T11:38:51;4.10;;;1.50;;
15931;SDS011;8065;49.520;11.284;2023-04-03T11:41:24;1.47;;;1.37;;
15931;SDS011;8065;49.520;11.284;2023-04-03T11:43:57;2.63;;;1.20;;
15931;SDS011;8065;49.520;11.284;2023-04-03T11:58:20;1.60;;;1.37;;
15931;SDS011;8065;49.520;11.284;2023-04-03T12:00:49;1.90;;;1.10;;
15931;SDS011;8065;49.520;11.284;2023-04-03T12:03:31;2.03;;;1.00;;
15931;SDS011;8065;49.520;11.284;2023-04-03T12:09:31;1.40;;;1.30;;
15931;SDS011;8065;49.520;11.284;2023-04-03T12:12:21;1.80;;;1.27;;
15931;SDS011;8065;49.520;11.284;2023-04-03T12:14:53;1.23;;;1.10;;
15931;SDS011;8065;49.520;11.284;2023-04-03T12:17:20;2.07;;;1.40;;
15931;SDS011;8065;49.520;11.284;2023-04-03T12:19:51;1.63;;;1.10;;
15931;SDS011;8065;49.520;11.284;2023-04-03T12:22:18;1.27;;;1.17;;
15931;SDS011;8065;49.520;11.284;2023-04-03T12:24:46;2.70;;;1.30;;
15931;SDS011;8065;49.520;11.284;2023-04-03T12:27:25;2.33;;;1.40;;
15931;SDS011;8065;49.520;11.284;2023-04-03T12:29:56;1.10;;;1.00;;
15931;SDS011;8065;49.520;11.284;2023-04-03T12:32:41;1.20;;;1.10;;
15931;SDS011;8065;49.520;11.284;2023-04-03T12:35:18;2.43;;;1.20;;
15931;SDS011;8065;49.520;11.284;2023-04-03T12:37:54;1.70;;;1.23;;
15931;SDS011;8065;49.520;11.284;2023-04-03T12:40:41;2.33;;;1.53;;
15931;SDS011;8065;49.520;11.284;2023-04-03T12:43:18;1.03;;;0.93;;
15931;SDS011;8065;49.520;11.284;2023-04-03T12:45:57;2.63;;;1.10;;
15931;SDS011;8065;49.520;11.284;2023-04-03T12:48:28;1.70;;;1.40;;
15931;SDS011;8065;49.520;11.284;2023-04-03T12:50:58;1.80;;;1.33;;
15931;SDS011;8065;49.520;11.284;2023-04-03T12:53:26;1.30;;;1.10;;
15931;SDS011;8065;49.520;11.284;2023-04-03T12:55:55;2.30;;;1.53;;
15931;SDS011;8065;49.520;11.284;2023-04-03T12:58:22;1.60;;;1.30;;
15931;SDS011;8065;49.520;11.284;2023-04-03T13:01:01;2.70;;;1.40;;
15931;SDS011;8065;49.520;11.284;2023-04-03T13:03:29;2.67;;;1.57;;
15931;SDS011;8065;49.520;11.284;2023-04-03T13:05:59;2.67;;;1.53;;
15931;SDS011;8065;49.520;11.284;2023-04-03T13:08:29;1.43;;;1.33;;
15931;SDS011;8065;49.520;11.284;2023-04-03T13:10:58;3.40;;;1.40;;
15931;SDS011;8065;49.520;11.284;2023-04-03T13:13:28;3.57;;;1.47;;
15931;SDS011;8065;49.520;11.284;2023-04-03T13:15:55;1.47;;;1.33;;
15931;SDS011;8065;49.520;11.284;2023-04-03T13:18:29;1.67;;;1.40;;
15931;SDS011;8065;49.520;11.284;2023-04-03T13:21:00;2.43;;;1.30;;
15931;SDS011;8065;49.520;11.284;2023-04-03T13:23:30;1.67;;;1.43;;
15931;SDS011;8065;49.520;11.284;2023-04-03T13:25:58;1.90;;;1.27;;
15931;SDS011;8065;49.520;11.284;2023-04-03T13:28:28;2.77;;;1.60;;
15931;SDS011;8065;49.520;11.284;2023-04-03T13:30:58;2.43;;;1.23;;
15931;SDS011;8065;49.520;11.284;2023-04-03T13:33:30;1.93;;;1.30;;
15931;SDS011;8065;49.520;11.284;2023-04-03T13:36:02;1.20;;;1.10;;
15931;SDS011;8065;49.520;11.284;2023-04-03T13:38:30;1.73;;;1.43;;
15931;SDS011;8065;49.520;11.284;2023-04-03T13:40:59;2.07;;;1.40;;
15931;SDS011;8065;49.520;11.284;2023-04-03T13:43:28;2.83;;;1.10;;
15931;SDS011;8065;49.520;11.284;2023-04-03T13:45:57;3.50;;;1.50;;
15931;SDS011;8065;49.520;11.284;2023-04-03T13:48:34;2.17;;;1.50;;
15931;SDS011;8065;49.520;11.284;2023-04-03T13:51:04;2.27;;;1.50;;
15931;SDS011;8065;49.520;11.284;2023-04-03T13:53:42;1.90;;;1.40;;
15931;SDS011;8065;49.520;11.284;2023-04-03T13:56:17;2.50;;;1.70;;
15931;SDS011;8065;49.520;11.284;2023-04-03T13:59:01;2.13;;;1.30;;
15931;SDS011;8065;49.520;11.284;2023-04-03T14:01:42;2.50;;;1.20;;
15931;SDS011;8065;49.520;11.284;2023-04-03T14:04:12;2.13;;;1.33;;
15931;SDS011;8065;49.520;11.284;2023-04-03T14:06:42;2.97;;;1.50;;
15931;SDS011;8065;49.520;11.284;2023-04-03T14:09:09;3.40;;;1.43;;
15931;SDS011;8065;49.520;11.284;2023-04-03T14:11:35;1.57;;;1.47;;
15931;SDS011;8065;49.520;11.284;2023-04-03T14:14:03;2.10;;;1.37;;
15931;SDS011;8065;49.520;11.284;2023-04-03T14:16:38;2.07;;;1.30;;
15931;SDS011;8065;49.520;11.284;2023-04-03T14:19:06;1.73;;;1.33;;
15931;SDS011;8065;49.520;11.284;2023-04-03T14:21:43;1.67;;;1.30;;
15931;SDS011;8065;49.520;11.284;2023-04-03T14:24:10;1.60;;;1.37;;
15931;SDS011;8065;49.520;11.284;2023-04-03T14:26:37;1.50;;;1.30;;
15931;SDS011;8065;49.520;11.284;2023-04-03T14:29:04;1.20;;;1.10;;
15931;SDS011;8065;49.520;11.284;2023-04-03T14:31:31;2.70;;;1.30;;
15931;SDS011;8065;49.520;11.284;2023-04-03T14:33:57;2.60;;;1.30;;
15931;SDS011;8065;49.520;11.284;2023-04-03T14:36:24;1.30;;;1.20;;
15931;SDS011;8065;49.520;11.284;2023-04-03T14:38:54;3.13;;;1.50;;
15931;SDS011;8065;49.520;11.284;2023-04-03T14:41:22;2.70;;;1.40;;
15931;SDS011;8065;49.520;11.284;2023-04-03T14:43:50;1.67;;;1.33;;
15931;SDS011;8065;49.520;11.284;2023-04-03T14:46:18;1.37;;;1.27;;
15931;SDS011;8065;49.520;11.284;2023-04-03T14:48:47;2.20;;;1.40;;
15931;SDS011;8065;49.520;11.284;2023-04-03T14:51:14;1.63;;;1.30;;
15931;SDS011;8065;49.520;11.284;2023-04-03T14:53:43;2.03;;;1.50;;
15931;SDS011;8065;49.520;11.284;2023-04-03T14:56:12;2.83;;;1.27;;
15931;SDS011;8065;49.520;11.284;2023-04-03T14:58:40;2.53;;;1.30;;
15931;SDS011;8065;49.520;11.284;2023-04-03T15:01:06;1.70;;;1.30;;
15931;SDS011;8065;49.520;11.284;2023-04-03T15:03:35;1.33;;;1.13;;
15931;SDS011;8065;49.520;11.284;2023-04-03T15:06:01;3.07;;;1.50;;
15931;SDS011;8065;49.520;11.284;2023-04-03T15:08:28;2.83;;;1.47;;
15931;SDS011;8065;49.520;11.284;2023-04-03T15:10:55;1.87;;;1.70;;
15931;SDS011;8065;49.520;11.284;2023-04-03T15:13:23;3.93;;;2.87;;
15931;SDS011;8065;49.520;11.284;2023-04-03T15:15:51;5.40;;;2.20;;
15931;SDS011;8065;49.520;11.284;2023-04-03T15:18:18;2.73;;;1.90;;